sensor_id;sensor_type;location;lat;lon;timestamp;pressure;altitude;pressure_sealevel;temperature;humidity
54172;BME280;40076;52.354;4.970;2023-04-04T00:01:24;103120.25;;;6.41;71.80
54172;BME280;40076;52.354;4.970;2023-04-04T00:03:50;103125.06;;;6.39;71.71
54172;BME280;40076;52.354;4.970;2023-04-04T00:06:19;103117.38;;;6.31;71.91
54172;BME280;40076;52.354;4.970;2023-04-04T00:08:44;103112.22;;;6.30;71.75
54172;BME280;40076;52.354;4.970;2023-04-04T00:11:10;103110.59;;;6.29;71.61
54172;BME280;40076;52.354;4.970;2023-04-04T00:13:35;103107.56;;;6.25;72.24
54172;BME280;40076;52.354;4.970;2023-04-04T00:16:02;103105.94;;;6.24;72.19
54172;BME280;40076;52.354;4.970;2023-04-04T00:18:27;103110.50;;;6.24;72.45
54172;BME280;40076;52.354;4.970;2023-04-04T00:20:53;103101.38;;;6.25;72.38
54172;BME280;40076;52.354;4.970;2023-04-04T00:23:18;103104.06;;;6.25;72.85
54172;BME280;40076;52.354;4.970;2023-04-04T00:25:49;103100.22;;;6.20;73.51
54172;BME280;40076;52.354;4.970;2023-04-04T00:28:15;103099.63;;;6.18;73.72
54172;BME280;40076;52.354;4.970;2023-04-04T00:30:41;103099.28;;;6.15;74.47
54172;BME280;40076;52.354;4.970;2023-04-04T00:33:06;103107.34;;;6.15;74.43
54172;BME280;40076;52.354;4.970;2023-04-04T00:35:32;103101.38;;;6.13;74.27
54172;BME280;40076;52.354;4.970;2023-04-04T00:37:57;103107.78;;;6.12;74.88
54172;BME280;40076;52.354;4.970;2023-04-04T00:40:22;103105.91;;;6.12;75.01
54172;BME280;40076;52.354;4.970;2023-04-04T00:42:48;103100.56;;;6.12;75.34
54172;BME280;40076;52.354;4.970;2023-04-04T00:45:14;103093.81;;;6.10;75.59
54172;BME280;40076;52.354;4.970;2023-04-04T00:47:42;103097.28;;;6.10;75.37
54172;BME280;40076;52.354;4.970;2023-04-04T00:50:07;103092.16;;;6.09;75.85
54172;BME280;40076;52.354;4.970;2023-04-04T00:52:33;103090.97;;;6.05;76.43
54172;BME280;40076;52.354;4.970;2023-04-04T00:54:58;103089.84;;;6.01;76.77
54172;BME280;40076;52.354;4.970;2023-04-04T00:57:24;103090.66;;;6.01;76.58
54172;BME280;40076;52.354;4.970;2023-04-04T00:59:51;103087.38;;;5.99;76.89
54172;BME280;40076;52.354;4.970;2023-04-04T01:02:16;103085.50;;;6.00;76.95
54172;BME280;40076;52.354;4.970;2023-04-04T01:04:42;103077.91;;;5.97;77.19
54172;BME280;40076;52.354;4.970;2023-04-04T01:07:08;103077.69;;;5.98;77.20
54172;BME280;40076;52.354;4.970;2023-04-04T01:09:33;103082.81;;;6.00;77.24
54172;BME280;40076;52.354;4.970;2023-04-04T01:12:00;103079.78;;;5.96;77.70
54172;BME280;40076;52.354;4.970;2023-04-04T01:14:26;103076.53;;;5.94;78.64
54172;BME280;40076;52.354;4.970;2023-04-04T01:16:52;103079.22;;;5.94;78.31
54172;BME280;40076;52.354;4.970;2023-04-04T01:19:29;103083.84;;;5.87;80.04
54172;BME280;40076;52.354;4.970;2023-04-04T01:21:58;103083.63;;;5.89;79.40
54172;BME280;40076;52.354;4.970;2023-04-04T01:24:24;103085.25;;;5.90;79.28
54172;BME280;40076;52.354;4.970;2023-04-04T01:26:51;103083.63;;;5.89;79.85
54172;BME280;40076;52.354;4.970;2023-04-04T01:29:17;103087.34;;;5.88;79.99
54172;BME280;40076;52.354;4.970;2023-04-04T01:31:47;103084.31;;;5.84;80.66
54172;BME280;40076;52.354;4.970;2023-04-04T01:39:26;103088.97;;;5.77;81.66
54172;BME280;40076;52.354;4.970;2023-04-04T01:41:57;103079.28;;;5.76;82.11
54172;BME280;40076;52.354;4.970;2023-04-04T01:44:23;103088.97;;;5.77;82.13
54172;BME280;40076;52.354;4.970;2023-04-04T01:46:52;103091.66;;;5.77;82.26
54172;BME280;40076;52.354;4.970;2023-04-04T01:49:19;103090.59;;;5.78;82.86
54172;BME280;40076;52.354;4.970;2023-04-04T01:51:44;103089.78;;;5.77;82.76
54172;BME280;40076;52.354;4.970;2023-04-04T01:54:10;103085.22;;;5.78;83.10
54172;BME280;40076;52.354;4.970;2023-04-04T01:56:36;103085.69;;;5.75;83.27
54172;BME280;40076;52.354;4.970;2023-04-04T01:59:01;103081.59;;;5.72;83.80
54172;BME280;40076;52.354;4.970;2023-04-04T02:01:27;103083.47;;;5.72;83.95
54172;BME280;40076;52.354;4.970;2023-04-04T02:03:52;103082.66;;;5.71;83.93
54172;BME280;40076;52.354;4.970;2023-04-04T02:06:17;103089.06;;;5.70;83.92
54172;BME280;40076;52.354;4.970;2023-04-04T02:08:43;103093.63;;;5.70;84.47
54172;BME280;40076;52.354;4.970;2023-04-04T02:11:08;103088.25;;;5.70;84.53
54172;BME280;40076;52.354;4.970;2023-04-04T02:13:34;103086.03;;;5.67;84.95
54172;BME280;40076;52.354;4.970;2023-04-04T02:16:02;103085.19;;;5.66;85.36
54172;BME280;40076;52.354;4.970;2023-04-04T02:18:27;103090.78;;;5.65;85.28
54172;BME280;40076;52.354;4.970;2023-04-04T02:20:55;103086.72;;;5.62;85.33
54172;BME280;40076;52.354;4.970;2023-04-04T02:23:24;103092.31;;;5.61;85.26
54172;BME280;40076;52.354;4.970;2023-04-04T02:25:50;103086.34;;;5.59;85.27
54172;BME280;40076;52.354;4.970;2023-04-04T02:28:15;103081.22;;;5.57;85.37
54172;BME280;40076;52.354;4.970;2023-04-04T02:30:40;103079.59;;;5.56;85.33
54172;BME280;40076;52.354;4.970;2023-04-04T02:33:06;103077.97;;;5.55;85.69
54172;BME280;40076;52.354;4.970;2023-04-04T02:35:31;103077.16;;;5.55;85.78
54172;BME280;40076;52.354;4.970;2023-04-04T02:37:57;103074.69;;;5.53;85.75
54172;BME280;40076;52.354;4.970;2023-04-04T02:40:22;103070.59;;;5.51;86.25
54172;BME280;40076;52.354;4.970;2023-04-04T02:42:47;103083.19;;;5.50;86.59
54172;BME280;40076;52.354;4.970;2023-04-04T02:45:13;103081.78;;;5.48;86.69
54172;BME280;40076;52.354;4.970;2023-04-04T02:47:39;103082.03;;;5.46;86.80
54172;BME280;40076;52.354;4.970;2023-04-04T02:50:05;103080.59;;;5.43;87.25
54172;BME280;40076;52.354;4.970;2023-04-04T02:52:30;103070.91;;;5.42;87.61
54172;BME280;40076;52.354;4.970;2023-04-04T02:54:57;103066.63;;;5.41;87.89
54172;BME280;40076;52.354;4.970;2023-04-04T02:57:22;103065.22;;;5.39;87.97
54172;BME280;40076;52.354;4.970;2023-04-04T02:59:47;103068.13;;;5.37;88.24
54172;BME280;40076;52.354;4.970;2023-04-04T03:02:12;103067.53;;;5.35;88.58
54172;BME280;40076;52.354;4.970;2023-04-04T03:04:38;103069.38;;;5.35;88.75
54172;BME280;40076;52.354;4.970;2023-04-04T03:07:03;103065.31;;;5.32;88.92
54172;BME280;40076;52.354;4.970;2023-04-04T03:09:29;103065.53;;;5.31;89.04
54172;BME280;40076;52.354;4.970;2023-04-04T03:11:54;103062.88;;;5.31;88.95
54172;BME280;40076;52.354;4.970;2023-04-04T03:14:19;103056.09;;;5.28;89.05
54172;BME280;40076;52.354;4.970;2023-04-04T03:16:46;103064.13;;;5.28;89.14
54172;BME280;40076;52.354;4.970;2023-04-04T03:19:13;103052.84;;;5.26;89.20
54172;BME280;40076;52.354;4.970;2023-04-04T03:21:38;103061.91;;;5.25;89.41
54172;BME280;40076;52.354;4.970;2023-04-04T03:24:04;103060.28;;;5.24;89.54
54172;BME280;40076;52.354;4.970;2023-04-04T03:26:29;103053.28;;;5.23;89.71
54172;BME280;40076;52.354;4.970;2023-04-04T03:28:55;103063.78;;;5.25;89.75
54172;BME280;40076;52.354;4.970;2023-04-04T03:31:20;103059.25;;;5.25;89.73
54172;BME280;40076;52.354;4.970;2023-04-04T03:33:45;103058.41;;;5.25;89.74
54172;BME280;40076;52.354;4.970;2023-04-04T03:36:11;103063.78;;;5.25;89.82
54172;BME280;40076;52.354;4.970;2023-04-04T03:38:37;103062.16;;;5.24;89.88
54172;BME280;40076;52.354;4.970;2023-04-04T03:41:04;103058.88;;;5.22;89.88
54172;BME280;40076;52.354;4.970;2023-04-04T03:43:30;103060.94;;;5.20;89.69
54172;BME280;40076;52.354;4.970;2023-04-04T03:46:00;103062.25;;;5.17;90.07
54172;BME280;40076;52.354;4.970;2023-04-04T03:48:26;103058.75;;;5.17;90.10
54172;BME280;40076;52.354;4.970;2023-04-04T03:50:51;103063.28;;;5.16;90.09
54172;BME280;40076;52.354;4.970;2023-04-04T03:53:16;103051.97;;;5.14;90.12
54172;BME280;40076;52.354;4.970;2023-04-04T03:55:42;103059.41;;;5.12;89.85
54172;BME280;40076;52.354;4.970;2023-04-04T03:58:07;103063.13;;;5.11;90.13
54172;BME280;40076;52.354;4.970;2023-04-04T04:00:32;103061.75;;;5.09;90.18
54172;BME280;40076;52.354;4.970;2023-04-04T04:02:58;103066.50;;;5.07;90.44
54172;BME280;40076;52.354;4.970;2023-04-04T04:05:23;103064.03;;;5.05;90.15
54172;BME280;40076;52.354;4.970;2023-04-04T04:07:49;103069.88;;;5.02;90.37
54172;BME280;40076;52.354;4.970;2023-04-04T04:10:14;103063.31;;;4.98;90.39
54172;BME280;40076;52.354;4.970;2023-04-04T04:12:40;103067.84;;;4.97;90.53
54172;BME280;40076;52.354;4.970;2023-04-04T04:15:06;103069.38;;;4.93;90.54
54172;BME280;40076;52.354;4.970;2023-04-04T04:17:31;103061.56;;;4.92;90.48
54172;BME280;40076;52.354;4.970;2023-04-04T04:19:56;103065.50;;;4.89;90.61
54172;BME280;40076;52.354;4.970;2023-04-04T04:22:22;103057.72;;;4.88;90.48
54172;BME280;40076;52.354;4.970;2023-04-04T04:24:47;103058.97;;;4.85;90.48
54172;BME280;40076;52.354;4.970;2023-04-04T04:27:12;103059.41;;;4.82;90.55
54172;BME280;40076;52.354;4.970;2023-04-04T04:29:37;103066.06;;;4.80;90.71
54172;BME280;40076;52.354;4.970;2023-04-04T04:32:03;103053.09;;;4.77;90.67
54172;BME280;40076;52.354;4.970;2023-04-04T04:34:28;103058.91;;;4.74;90.48
54172;BME280;40076;52.354;4.970;2023-04-04T04:36:53;103057.72;;;4.70;90.74
54172;BME280;40076;52.354;4.970;2023-04-04T04:39:19;103069.69;;;4.67;90.80
54172;BME280;40076;52.354;4.970;2023-04-04T04:41:44;103065.63;;;4.64;91.28
54172;BME280;40076;52.354;4.970;2023-04-04T04:44:09;103069.56;;;4.62;91.29
54172;BME280;40076;52.354;4.970;2023-04-04T04:46:35;103067.31;;;4.59;91.09
54172;BME280;40076;52.354;4.970;2023-04-04T04:49:00;103065.94;;;4.56;91.22
54172;BME280;40076;52.354;4.970;2023-04-04T04:51:25;103061.00;;;4.53;91.67
54172;BME280;40076;52.354;4.970;2023-04-04T04:53:51;103057.72;;;4.51;91.87
54172;BME280;40076;52.354;4.970;2023-04-04T04:56:16;103054.47;;;4.49;91.89
54172;BME280;40076;52.354;4.970;2023-04-04T04:58:42;103059.00;;;4.49;92.36
54172;BME280;40076;52.354;4.970;2023-04-04T05:01:09;103059.44;;;4.46;92.21
54172;BME280;40076;52.354;4.970;2023-04-04T05:03:34;103065.00;;;4.44;92.55
54172;BME280;40076;52.354;4.970;2023-04-04T05:06:00;103061.75;;;4.42;92.08
54172;BME280;40076;52.354;4.970;2023-04-04T05:08:25;103067.56;;;4.39;92.31
54172;BME280;40076;52.354;4.970;2023-04-04T05:10:51;103067.16;;;4.36;92.29
54172;BME280;40076;52.354;4.970;2023-04-04T05:13:19;103076.25;;;4.35;92.50
54172;BME280;40076;52.354;4.970;2023-04-04T05:15:45;103082.03;;;4.32;92.84
54172;BME280;40076;52.354;4.970;2023-04-04T05:18:11;103090.28;;;4.30;93.06
54172;BME280;40076;52.354;4.970;2023-04-04T05:20:36;103096.69;;;4.29;93.18
54172;BME280;40076;52.354;4.970;2023-04-04T05:23:01;103094.47;;;4.26;93.03
54172;BME280;40076;52.354;4.970;2023-04-04T05:25:27;103088.50;;;4.24;93.34
54172;BME280;40076;52.354;4.970;2023-04-04T05:27:53;103088.94;;;4.21;93.83
54172;BME280;40076;52.354;4.970;2023-04-04T05:30:19;103091.63;;;4.21;94.02
54172;BME280;40076;52.354;4.970;2023-04-04T05:32:45;103082.75;;;4.20;94.06
54172;BME280;40076;52.354;4.970;2023-04-04T05:35:11;103073.13;;;4.19;93.96
54172;BME280;40076;52.354;4.970;2023-04-04T05:37:39;103071.69;;;4.17;94.36
54172;BME280;40076;52.354;4.970;2023-04-04T05:40:06;103075.41;;;4.16;94.34
54172;BME280;40076;52.354;4.970;2023-04-04T05:42:32;103063.88;;;4.15;94.38
54172;BME280;40076;52.354;4.970;2023-04-04T05:44:57;103063.28;;;4.13;94.49
54172;BME280;40076;52.354;4.970;2023-04-04T05:47:22;103068.88;;;4.12;94.71
54172;BME280;40076;52.354;4.970;2023-04-04T05:49:48;103070.13;;;4.09;94.59
54172;BME280;40076;52.354;4.970;2023-04-04T05:52:13;103079.19;;;4.08;94.80
54172;BME280;40076;52.354;4.970;2023-04-04T05:54:38;103076.72;;;4.07;94.89
54172;BME280;40076;52.354;4.970;2023-04-04T05:57:06;103081.03;;;4.08;95.05
54172;BME280;40076;52.354;4.970;2023-04-04T05:59:32;103073.22;;;4.06;95.01
54172;BME280;40076;52.354;4.970;2023-04-04T06:01:58;103068.09;;;4.05;95.23
54172;BME280;40076;52.354;4.970;2023-04-04T06:04:23;103072.41;;;4.06;95.28
54172;BME280;40076;52.354;4.970;2023-04-04T06:06:48;103063.56;;;4.05;95.48
54172;BME280;40076;52.354;4.970;2023-04-04T06:09:14;103068.09;;;4.05;95.86
54172;BME280;40076;52.354;4.970;2023-04-04T06:11:39;103066.03;;;4.07;95.99
54172;BME280;40076;52.354;4.970;2023-04-04T06:14:05;103066.03;;;4.07;96.25
54172;BME280;40076;52.354;4.970;2023-04-04T06:16:31;103076.50;;;4.08;96.54
54172;BME280;40076;52.354;4.970;2023-04-04T06:18:57;103076.31;;;4.10;96.67
54172;BME280;40076;52.354;4.970;2023-04-04T06:21:22;103081.19;;;4.13;96.84
54172;BME280;40076;52.354;4.970;2023-04-04T06:23:48;103082.00;;;4.13;96.74
54172;BME280;40076;52.354;4.970;2023-04-04T06:26:13;103080.75;;;4.16;96.77
54172;BME280;40076;52.354;4.970;2023-04-04T06:28:48;103078.91;;;4.16;96.70
54172;BME280;40076;52.354;4.970;2023-04-04T06:31:15;103077.88;;;4.17;96.82
54172;BME280;40076;52.354;4.970;2023-04-04T06:33:40;103072.31;;;4.19;96.45
54172;BME280;40076;52.354;4.970;2023-04-04T06:36:06;103071.25;;;4.20;96.32
54172;BME280;40076;52.354;4.970;2023-04-04T06:38:31;103074.53;;;4.22;96.07
54172;BME280;40076;52.354;4.970;2023-04-04T06:40:57;103070.81;;;4.23;96.08
54172;BME280;40076;52.354;4.970;2023-04-04T06:43:22;103084.78;;;4.25;95.96
54172;BME280;40076;52.354;4.970;2023-04-04T06:45:48;103088.28;;;4.25;95.94
54172;BME280;40076;52.354;4.970;2023-04-04T06:48:13;103079.22;;;4.26;95.64
54172;BME280;40076;52.354;4.970;2023-04-04T06:50:39;103091.31;;;4.29;95.56
54172;BME280;40076;52.354;4.970;2023-04-04T06:53:05;103097.28;;;4.31;95.57
54172;BME280;40076;52.354;4.970;2023-04-04T06:55:32;103096.03;;;4.34;95.22
54172;BME280;40076;52.354;4.970;2023-04-04T06:57:57;103094.75;;;4.36;95.09
54172;BME280;40076;52.354;4.970;2023-04-04T07:00:23;103097.00;;;4.39;95.09
54172;BME280;40076;52.354;4.970;2023-04-04T07:02:48;103094.94;;;4.41;94.96
54172;BME280;40076;52.354;4.970;2023-04-04T07:05:14;103099.00;;;4.44;94.86
54172;BME280;40076;52.354;4.970;2023-04-04T07:07:42;103103.09;;;4.46;94.58
54172;BME280;40076;52.354;4.970;2023-04-04T07:10:08;103098.13;;;4.50;94.33
54172;BME280;40076;52.354;4.970;2023-04-04T07:12:33;103090.66;;;4.52;94.09
54172;BME280;40076;52.354;4.970;2023-04-04T07:14:58;103096.41;;;4.55;93.59
54172;BME280;40076;52.354;4.970;2023-04-04T07:17:24;103091.66;;;4.57;93.02
54172;BME280;40076;52.354;4.970;2023-04-04T07:19:49;103092.22;;;4.59;92.55
54172;BME280;40076;52.354;4.970;2023-04-04T07:22:15;103095.50;;;4.61;91.48
54172;BME280;40076;52.354;4.970;2023-04-04T07:24:40;103091.34;;;4.65;91.24
54172;BME280;40076;52.354;4.970;2023-04-04T07:27:06;103096.84;;;4.71;90.79
54172;BME280;40076;52.354;4.970;2023-04-04T07:29:32;103094.53;;;4.74;90.17
54172;BME280;40076;52.354;4.970;2023-04-04T07:31:57;103094.09;;;4.77;89.19
54172;BME280;40076;52.354;4.970;2023-04-04T07:34:22;103098.75;;;4.82;88.21
54172;BME280;40076;52.354;4.970;2023-04-04T07:36:50;103101.00;;;4.85;88.17
54172;BME280;40076;52.354;4.970;2023-04-04T07:39:15;103105.69;;;4.89;87.88
54172;BME280;40076;52.354;4.970;2023-04-04T07:41:41;103097.19;;;4.92;87.24
54172;BME280;40076;52.354;4.970;2023-04-04T07:44:06;103099.19;;;4.97;86.71
54172;BME280;40076;52.354;4.970;2023-04-04T07:46:31;103099.56;;;5.00;86.26
54172;BME280;40076;52.354;4.970;2023-04-04T07:48:57;103089.19;;;5.04;86.23
54172;BME280;40076;52.354;4.970;2023-04-04T07:51:22;103093.09;;;5.08;85.15
54172;BME280;40076;52.354;4.970;2023-04-04T07:53:54;103089.94;;;5.11;83.89
54172;BME280;40076;52.354;4.970;2023-04-04T07:56:19;103088.44;;;5.15;84.28
54172;BME280;40076;52.354;4.970;2023-04-04T07:58:45;103089.63;;;5.19;84.89
54172;BME280;40076;52.354;4.970;2023-04-04T08:01:11;103080.09;;;5.23;84.88
54172;BME280;40076;52.354;4.970;2023-04-04T08:03:36;103082.06;;;5.28;84.18
54172;BME280;40076;52.354;4.970;2023-04-04T08:06:01;103076.25;;;5.31;84.08
54172;BME280;40076;52.354;4.970;2023-04-04T08:08:27;103085.25;;;5.36;83.53
54172;BME280;40076;52.354;4.970;2023-04-04T08:10:53;103078.63;;;5.39;82.20
54172;BME280;40076;52.354;4.970;2023-04-04T08:13:19;103089.69;;;5.42;81.44
54172;BME280;40076;52.354;4.970;2023-04-04T08:15:44;103079.56;;;5.44;80.50
54172;BME280;40076;52.354;4.970;2023-04-04T08:18:09;103087.97;;;5.48;80.18
54172;BME280;40076;52.354;4.970;2023-04-04T08:20:35;103084.59;;;5.53;80.11
54172;BME280;40076;52.354;4.970;2023-04-04T08:23:00;103086.00;;;5.55;78.01
54172;BME280;40076;52.354;4.970;2023-04-04T08:25:26;103081.59;;;5.61;77.09
54172;BME280;40076;52.354;4.970;2023-04-04T08:27:51;103074.94;;;5.63;76.21
54172;BME280;40076;52.354;4.970;2023-04-04T08:30:17;103076.09;;;5.67;75.94
54172;BME280;40076;52.354;4.970;2023-04-04T08:32:43;103071.94;;;5.71;74.26
54172;BME280;40076;52.354;4.970;2023-04-04T08:35:10;103076.81;;;5.74;73.68
54172;BME280;40076;52.354;4.970;2023-04-04T08:37:36;103069.34;;;5.76;73.57
54172;BME280;40076;52.354;4.970;2023-04-04T08:40:03;103071.34;;;5.81;73.14
54172;BME280;40076;52.354;4.970;2023-04-04T08:42:31;103063.88;;;5.83;71.51
54172;BME280;40076;52.354;4.970;2023-04-04T08:44:58;103064.47;;;5.85;71.44
54172;BME280;40076;52.354;4.970;2023-04-04T08:47:25;103070.22;;;5.89;72.65
54172;BME280;40076;52.354;4.970;2023-04-04T08:49:53;103066.84;;;5.93;72.50
54172;BME280;40076;52.354;4.970;2023-04-04T08:52:19;103065.31;;;5.97;71.95
54172;BME280;40076;52.354;4.970;2023-04-04T08:54:47;103071.03;;;6.01;72.28
54172;BME280;40076;52.354;4.970;2023-04-04T08:57:12;103066.00;;;6.04;70.92
54172;BME280;40076;52.354;4.970;2023-04-04T08:59:38;103069.88;;;6.08;71.22
54172;BME280;40076;52.354;4.970;2023-04-04T09:02:13;103073.13;;;6.10;69.00
54172;BME280;40076;52.354;4.970;2023-04-04T09:04:41;103083.19;;;6.15;69.25
54172;BME280;40076;52.354;4.970;2023-04-04T09:07:08;103073.84;;;6.17;68.19
54172;BME280;40076;52.354;4.970;2023-04-04T09:09:34;103075.00;;;6.22;68.00
54172;BME280;40076;52.354;4.970;2023-04-04T09:11:59;103076.16;;;6.26;67.29
54172;BME280;40076;52.354;4.970;2023-04-04T09:14:26;103087.69;;;6.26;65.22
54172;BME280;40076;52.354;4.970;2023-04-04T09:16:54;103082.09;;;6.28;64.62
54172;BME280;40076;52.354;4.970;2023-04-04T09:19:19;103089.13;;;6.29;63.72
54172;BME280;40076;52.354;4.970;2023-04-04T09:21:46;103085.38;;;6.30;62.62
54172;BME280;40076;52.354;4.970;2023-04-04T09:24:12;103088.66;;;6.32;62.59
54172;BME280;40076;52.354;4.970;2023-04-04T09:26:48;103090.84;;;6.35;62.66
54172;BME280;40076;52.354;4.970;2023-04-04T09:29:21;103084.19;;;6.37;61.78
54172;BME280;40076;52.354;4.970;2023-04-04T09:31:47;103085.84;;;6.38;61.96
54172;BME280;40076;52.354;4.970;2023-04-04T09:34:18;103084.53;;;6.41;60.81
54172;BME280;40076;52.354;4.970;2023-04-04T09:36:44;103086.53;;;6.45;60.92
54172;BME280;40076;52.354;4.970;2023-04-04T09:39:09;103073.69;;;6.47;59.93
54172;BME280;40076;52.354;4.970;2023-04-04T09:41:37;103070.50;;;6.50;59.13
54172;BME280;40076;52.354;4.970;2023-04-04T09:44:03;103068.41;;;6.52;58.52
54172;BME280;40076;52.354;4.970;2023-04-04T09:46:29;103059.06;;;6.55;58.95
54172;BME280;40076;52.354;4.970;2023-04-04T09:48:56;103059.41;;;6.58;58.78
54172;BME280;40076;52.354;4.970;2023-04-04T09:51:32;103061.63;;;6.62;58.65
54172;BME280;40076;52.354;4.970;2023-04-04T09:53:58;103062.78;;;6.66;57.94
54172;BME280;40076;52.354;4.970;2023-04-04T09:56:23;103069.53;;;6.68;57.65
54172;BME280;40076;52.354;4.970;2023-04-04T09:58:50;103059.13;;;6.72;56.86
54172;BME280;40076;52.354;4.970;2023-04-04T10:01:16;103064.25;;;6.73;56.51
54172;BME280;40076;52.354;4.970;2023-04-04T10:03:42;103065.44;;;6.77;56.31
54172;BME280;40076;52.354;4.970;2023-04-04T10:06:08;103057.38;;;6.77;55.63
54172;BME280;40076;52.354;4.970;2023-04-04T10:08:40;103070.91;;;6.82;56.05
54172;BME280;40076;52.354;4.970;2023-04-04T10:11:07;103063.19;;;6.86;56.05
54172;BME280;40076;52.354;4.970;2023-04-04T10:13:35;103068.88;;;6.89;55.68
54172;BME280;40076;52.354;4.970;2023-04-04T10:16:02;103064.91;;;6.92;55.66
54172;BME280;40076;52.354;4.970;2023-04-04T10:18:29;103067.09;;;6.95;55.56
54172;BME280;40076;52.354;4.970;2023-04-04T10:21:00;103062.31;;;6.97;54.66
54172;BME280;40076;52.354;4.970;2023-04-04T10:23:27;103067.22;;;7.00;54.02
54172;BME280;40076;52.354;4.970;2023-04-04T10:25:53;103058.09;;;7.01;54.34
54172;BME280;40076;52.354;4.970;2023-04-04T10:28:19;103060.06;;;7.06;53.96
54172;BME280;40076;52.354;4.970;2023-04-04T10:36:50;103055.34;;;7.13;54.91
54172;BME280;40076;52.354;4.970;2023-04-04T10:39:28;103045.66;;;7.12;54.86
54172;BME280;40076;52.354;4.970;2023-04-04T10:41:57;103044.13;;;7.16;54.63
54172;BME280;40076;52.354;4.970;2023-04-04T10:47:00;103048.69;;;7.15;54.17
54172;BME280;40076;52.354;4.970;2023-04-04T10:49:28;103042.00;;;7.18;54.68
54172;BME280;40076;52.354;4.970;2023-04-04T10:51:55;103036.13;;;7.21;54.72
54172;BME280;40076;52.354;4.970;2023-04-04T10:54:20;103030.28;;;7.24;54.84
54172;BME280;40076;52.354;4.970;2023-04-04T10:56:46;103031.41;;;7.28;54.89
54172;BME280;40076;52.354;4.970;2023-04-04T10:59:15;103034.44;;;7.31;54.86
54172;BME280;40076;52.354;4.970;2023-04-04T11:01:57;103026.69;;;7.35;55.02
54172;BME280;40076;52.354;4.970;2023-04-04T11:04:33;103027.28;;;7.37;54.94
54172;BME280;40076;52.354;4.970;2023-04-04T11:07:12;103027.59;;;7.41;53.97
54172;BME280;40076;52.354;4.970;2023-04-04T11:10:14;103016.34;;;7.44;54.81
54172;BME280;40076;52.354;4.970;2023-04-04T11:12:44;103018.81;;;7.45;55.06
54172;BME280;40076;52.354;4.970;2023-04-04T11:15:11;103015.38;;;7.50;55.18
54172;BME280;40076;52.354;4.970;2023-04-04T11:17:55;103011.38;;;7.52;54.65
54172;BME280;40076;52.354;4.970;2023-04-04T11:23:07;103009.81;;;7.56;55.00
54172;BME280;40076;52.354;4.970;2023-04-04T11:25:40;103012.50;;;7.56;54.44
54172;BME280;40076;52.354;4.970;2023-04-04T11:28:12;103002.31;;;7.58;54.32
54172;BME280;40076;52.354;4.970;2023-04-04T11:30:41;103003.47;;;7.62;54.43
54172;BME280;40076;52.354;4.970;2023-04-04T11:33:13;103006.72;;;7.64;54.50
54172;BME280;40076;52.354;4.970;2023-04-04T11:35:50;103005.41;;;7.67;54.36
54172;BME280;40076;52.354;4.970;2023-04-04T11:38:15;103003.03;;;7.70;54.42
54172;BME280;40076;52.354;4.970;2023-04-04T11:40:42;103005.50;;;7.72;53.62
54172;BME280;40076;52.354;4.970;2023-04-04T11:43:16;103008.50;;;7.75;53.68
54172;BME280;40076;52.354;4.970;2023-04-04T11:45:45;102997.25;;;7.79;53.75
54172;BME280;40076;52.354;4.970;2023-04-04T11:48:12;102990.31;;;7.83;53.59
54172;BME280;40076;52.354;4.970;2023-04-04T11:50:39;102993.06;;;7.88;53.31
54172;BME280;40076;52.354;4.970;2023-04-04T11:53:06;102995.28;;;7.91;53.48
54172;BME280;40076;52.354;4.970;2023-04-04T11:55:32;102982.13;;;7.94;53.23
54172;BME280;40076;52.354;4.970;2023-04-04T11:58:08;102987.84;;;7.98;53.04
54172;BME280;40076;52.354;4.970;2023-04-04T12:00:34;102975.75;;;8.00;53.45
54172;BME280;40076;52.354;4.970;2023-04-04T12:03:03;102973.63;;;8.02;52.82
54172;BME280;40076;52.354;4.970;2023-04-04T12:05:30;102966.69;;;8.06;52.72
54172;BME280;40076;52.354;4.970;2023-04-04T12:07:55;102971.81;;;8.08;52.88
54172;BME280;40076;52.354;4.970;2023-04-04T12:10:21;102967.56;;;8.12;52.42
54172;BME280;40076;52.354;4.970;2023-04-04T12:12:47;102972.44;;;8.15;52.63
54172;BME280;40076;52.354;4.970;2023-04-04T12:15:13;102962.22;;;8.17;52.78
54172;BME280;40076;52.354;4.970;2023-04-04T12:17:40;102963.84;;;8.18;53.10
54172;BME280;40076;52.354;4.970;2023-04-04T12:20:12;102958.78;;;8.22;52.90
54172;BME280;40076;52.354;4.970;2023-04-04T12:22:39;102958.56;;;8.23;53.23
54172;BME280;40076;52.354;4.970;2023-04-04T12:25:05;102960.47;;;8.28;53.89
54172;BME280;40076;52.354;4.970;2023-04-04T12:27:31;102952.47;;;8.33;53.52
54172;BME280;40076;52.354;4.970;2023-04-04T12:29:57;102942.03;;;8.36;53.08
54172;BME280;40076;52.354;4.970;2023-04-04T12:32:23;102946.09;;;8.39;53.01
54172;BME280;40076;52.354;4.970;2023-04-04T12:34:48;102944.19;;;8.39;52.42
54172;BME280;40076;52.354;4.970;2023-04-04T12:37:13;102946.97;;;8.44;52.85
54172;BME280;40076;52.354;4.970;2023-04-04T12:39:47;102947.25;;;8.48;53.75
54172;BME280;40076;52.354;4.970;2023-04-04T12:42:23;102946.53;;;8.52;53.09
54172;BME280;40076;52.354;4.970;2023-04-04T12:44:50;102934.72;;;8.59;53.16
54172;BME280;40076;52.354;4.970;2023-04-04T12:47:17;102934.47;;;8.60;53.10
54172;BME280;40076;52.354;4.970;2023-04-04T12:49:46;102931.25;;;8.63;52.65
54172;BME280;40076;52.354;4.970;2023-04-04T12:52:30;102933.69;;;8.65;52.38
54172;BME280;40076;52.354;4.970;2023-04-04T12:55:05;102928.63;;;8.68;52.80
54172;BME280;40076;52.354;4.970;2023-04-04T12:57:32;102922.16;;;8.69;52.96
54172;BME280;40076;52.354;4.970;2023-04-04T13:00:00;102921.06;;;8.70;52.94
54172;BME280;40076;52.354;4.970;2023-04-04T13:02:26;102922.22;;;8.74;53.11
54172;BME280;40076;52.354;4.970;2023-04-04T13:04:53;102914.13;;;8.74;53.26
54172;BME280;40076;52.354;4.970;2023-04-04T13:07:26;102917.91;;;8.78;53.62
54172;BME280;40076;52.354;4.970;2023-04-04T13:09:54;102909.09;;;8.83;53.73
54172;BME280;40076;52.354;4.970;2023-04-04T13:12:20;102909.38;;;8.86;54.58
54172;BME280;40076;52.354;4.970;2023-04-04T13:15:01;102908.88;;;8.89;54.26